sensor_id;sensor_type;location;lat;lon;timestamp;P1;durP1;ratioP1;P2;durP2;ratioP2
23434;SDS011;11890;45.380;11.028;2023-02-22T00:01:15;135.23;;;62.38;;
23434;SDS011;11890;45.380;11.028;2023-02-22T00:04:04;145.93;;;65.25;;
23434;SDS011;11890;45.380;11.028;2023-02-22T00:06:32;145.32;;;64.40;;
23434;SDS011;11890;45.380;11.028;2023-02-22T00:09:00;136.35;;;63.47;;
23434;SDS011;11890;45.380;11.028;2023-02-22T00:11:28;147.85;;;65.93;;
23434;SDS011;11890;45.380;11.028;2023-02-22T00:13:57;141.27;;;64.18;;
23434;SDS011;11890;45.380;11.028;2023-02-22T00:16:25;140.48;;;64.65;;
23434;SDS011;11890;45.380;11.028;2023-02-22T00:18:53;142.45;;;64.22;;
23434;SDS011;11890;45.380;11.028;2023-02-22T00:21:21;143.85;;;63.83;;
23434;SDS011;11890;45.380;11.028;2023-02-22T00:23:49;139.68;;;65.97;;
23434;SDS011;11890;45.380;11.028;2023-02-22T00:26:20;141.80;;;64.28;;
23434;SDS011;11890;45.380;11.028;2023-02-22T00:28:50;139.32;;;63.25;;
23434;SDS011;11890;45.380;11.028;2023-02-22T00:31:18;142.95;;;65.05;;
23434;SDS011;11890;45.380;11.028;2023-02-22T00:33:48;141.25;;;64.18;;
23434;SDS011;11890;45.380;11.028;2023-02-22T00:36:16;136.40;;;63.60;;
23434;SDS011;11890;45.380;11.028;2023-02-22T00:38:44;143.52;;;64.30;;
23434;SDS011;11890;45.380;11.028;2023-02-22T00:41:12;143.30;;;62.03;;
23434;SDS011;11890;45.380;11.028;2023-02-22T00:43:41;139.93;;;65.10;;
23434;SDS011;11890;45.380;11.028;2023-02-22T00:46:12;131.35;;;60.78;;
23434;SDS011;11890;45.380;11.028;2023-02-22T00:48:40;138.05;;;61.88;;
23434;SDS011;11890;45.380;11.028;2023-02-22T00:51:08;131.95;;;60.92;;
23434;SDS011;11890;45.380;11.028;2023-02-22T00:53:36;139.10;;;63.80;;
23434;SDS011;11890;45.380;11.028;2023-02-22T00:56:05;138.75;;;64.50;;
23434;SDS011;11890;45.380;11.028;2023-02-22T00:58:33;141.48;;;63.35;;
23434;SDS011;11890;45.380;11.028;2023-02-22T01:01:01;141.45;;;63.53;;
23434;SDS011;11890;45.380;11.028;2023-02-22T01:03:29;133.38;;;62.35;;
23434;SDS011;11890;45.380;11.028;2023-02-22T01:05:58;130.50;;;61.20;;
23434;SDS011;11890;45.380;11.028;2023-02-22T01:08:26;133.40;;;64.43;;
23434;SDS011;11890;45.380;11.028;2023-02-22T01:10:57;134.70;;;61.65;;
23434;SDS011;11890;45.380;11.028;2023-02-22T01:13:25;136.15;;;63.67;;
23434;SDS011;11890;45.380;11.028;2023-02-22T01:15:52;143.27;;;61.58;;
23434;SDS011;11890;45.380;11.028;2023-02-22T01:18:22;144.70;;;63.13;;
23434;SDS011;11890;45.380;11.028;2023-02-22T01:20:51;132.40;;;60.55;;
23434;SDS011;11890;45.380;11.028;2023-02-22T01:23:19;137.40;;;62.38;;
23434;SDS011;11890;45.380;11.028;2023-02-22T01:25:48;137.55;;;62.50;;
23434;SDS011;11890;45.380;11.028;2023-02-22T01:28:15;136.40;;;60.80;;
23434;SDS011;11890;45.380;11.028;2023-02-22T01:30:43;128.68;;;60.00;;
23434;SDS011;11890;45.380;11.028;2023-02-22T01:33:11;131.77;;;59.35;;
23434;SDS011;11890;45.380;11.028;2023-02-22T01:35:41;130.27;;;60.67;;
23434;SDS011;11890;45.380;11.028;2023-02-22T01:38:12;122.93;;;57.60;;
23434;SDS011;11890;45.380;11.028;2023-02-22T01:40:40;128.18;;;59.65;;
23434;SDS011;11890;45.380;11.028;2023-02-22T01:43:25;131.63;;;57.92;;
23434;SDS011;11890;45.380;11.028;2023-02-22T01:48:36;133.68;;;60.63;;
23434;SDS011;11890;45.380;11.028;2023-02-22T01:51:12;133.02;;;59.50;;
23434;SDS011;11890;45.380;11.028;2023-02-22T01:53:46;128.05;;;59.90;;
23434;SDS011;11890;45.380;11.028;2023-02-22T01:56:16;139.25;;;61.95;;
23434;SDS011;11890;45.380;11.028;2023-02-22T01:58:47;140.02;;;59.50;;
23434;SDS011;11890;45.380;11.028;2023-02-22T02:01:17;134.02;;;60.67;;
23434;SDS011;11890;45.380;11.028;2023-02-22T02:03:45;129.20;;;59.70;;
23434;SDS011;11890;45.380;11.028;2023-02-22T02:06:15;133.40;;;59.78;;
23434;SDS011;11890;45.380;11.028;2023-02-22T02:08:56;125.30;;;59.30;;
23434;SDS011;11890;45.380;11.028;2023-02-22T02:11:28;134.60;;;60.67;;
23434;SDS011;11890;45.380;11.028;2023-02-22T02:13:58;130.55;;;58.85;;
23434;SDS011;11890;45.380;11.028;2023-02-22T02:16:33;121.57;;;58.13;;
23434;SDS011;11890;45.380;11.028;2023-02-22T02:19:15;128.40;;;60.80;;
23434;SDS011;11890;45.380;11.028;2023-02-22T02:32:13;124.68;;;55.25;;
23434;SDS011;11890;45.380;11.028;2023-02-22T02:35:18;126.05;;;56.72;;
23434;SDS011;11890;45.380;11.028;2023-02-22T02:45:37;122.20;;;56.03;;
23434;SDS011;11890;45.380;11.028;2023-02-22T02:48:07;123.15;;;56.33;;
23434;SDS011;11890;45.380;11.028;2023-02-22T02:50:38;117.57;;;54.95;;
23434;SDS011;11890;45.380;11.028;2023-02-22T02:53:07;117.78;;;55.17;;
23434;SDS011;11890;45.380;11.028;2023-02-22T02:55:36;122.20;;;53.38;;
23434;SDS011;11890;45.380;11.028;2023-02-22T02:58:06;124.75;;;54.25;;
23434;SDS011;11890;45.380;11.028;2023-02-22T03:00:36;125.82;;;55.20;;
23434;SDS011;11890;45.380;11.028;2023-02-22T03:11:05;119.38;;;52.05;;
23434;SDS011;11890;45.380;11.028;2023-02-22T03:18:58;114.32;;;51.97;;
23434;SDS011;11890;45.380;11.028;2023-02-22T03:21:33;123.13;;;54.67;;
23434;SDS011;11890;45.380;11.028;2023-02-22T03:26:40;127.03;;;55.60;;
23434;SDS011;11890;45.380;11.028;2023-02-22T03:29:10;123.75;;;56.78;;
23434;SDS011;11890;45.380;11.028;2023-02-22T03:31:40;128.85;;;55.38;;
23434;SDS011;11890;45.380;11.028;2023-02-22T03:34:14;119.70;;;54.72;;
23434;SDS011;11890;45.380;11.028;2023-02-22T03:37:20;118.30;;;56.10;;
23434;SDS011;11890;45.380;11.028;2023-02-22T03:39:42;121.88;;;54.75;;
23434;SDS011;11890;45.380;11.028;2023-02-22T03:42:15;124.25;;;56.72;;
23434;SDS011;11890;45.380;11.028;2023-02-22T03:44:44;121.50;;;54.63;;
23434;SDS011;11890;45.380;11.028;2023-02-22T03:47:15;132.95;;;56.17;;
23434;SDS011;11890;45.380;11.028;2023-02-22T03:49:46;126.75;;;56.80;;
23434;SDS011;11890;45.380;11.028;2023-02-22T03:52:16;128.30;;;57.17;;
23434;SDS011;11890;45.380;11.028;2023-02-22T03:54:44;128.10;;;58.30;;
23434;SDS011;11890;45.380;11.028;2023-02-22T03:57:16;128.43;;;56.88;;
23434;SDS011;11890;45.380;11.028;2023-02-22T03:59:53;126.63;;;56.50;;
23434;SDS011;11890;45.380;11.028;2023-02-22T04:02:21;119.10;;;55.20;;
23434;SDS011;11890;45.380;11.028;2023-02-22T04:04:50;127.03;;;56.65;;
23434;SDS011;11890;45.380;11.028;2023-02-22T04:07:18;125.35;;;57.10;;
23434;SDS011;11890;45.380;11.028;2023-02-22T04:09:47;122.40;;;55.25;;
23434;SDS011;11890;45.380;11.028;2023-02-22T04:12:15;128.00;;;56.10;;
23434;SDS011;11890;45.380;11.028;2023-02-22T04:14:53;123.80;;;54.97;;
23434;SDS011;11890;45.380;11.028;2023-02-22T04:17:22;137.30;;;57.90;;
23434;SDS011;11890;45.380;11.028;2023-02-22T04:19:49;122.93;;;55.97;;
23434;SDS011;11890;45.380;11.028;2023-02-22T04:22:18;137.50;;;59.65;;
23434;SDS011;11890;45.380;11.028;2023-02-22T04:24:46;128.48;;;59.17;;
23434;SDS011;11890;45.380;11.028;2023-02-22T04:27:16;138.50;;;61.60;;
23434;SDS011;11890;45.380;11.028;2023-02-22T04:29:44;128.85;;;59.05;;
23434;SDS011;11890;45.380;11.028;2023-02-22T04:32:12;130.60;;;59.38;;
23434;SDS011;11890;45.380;11.028;2023-02-22T04:34:40;142.18;;;61.28;;
23434;SDS011;11890;45.380;11.028;2023-02-22T04:37:09;127.90;;;57.83;;
23434;SDS011;11890;45.380;11.028;2023-02-22T04:39:37;136.52;;;59.55;;
23434;SDS011;11890;45.380;11.028;2023-02-22T04:42:05;127.55;;;59.55;;
23434;SDS011;11890;45.380;11.028;2023-02-22T04:44:33;135.38;;;60.17;;
23434;SDS011;11890;45.380;11.028;2023-02-22T04:47:00;127.70;;;58.50;;
23434;SDS011;11890;45.380;11.028;2023-02-22T04:49:28;125.93;;;58.78;;
23434;SDS011;11890;45.380;11.028;2023-02-22T04:51:57;137.30;;;61.83;;
23434;SDS011;11890;45.380;11.028;2023-02-22T04:54:32;133.77;;;59.28;;
23434;SDS011;11890;45.380;11.028;2023-02-22T04:57:00;130.15;;;58.33;;
23434;SDS011;11890;45.380;11.028;2023-02-22T04:59:28;136.82;;;60.95;;
23434;SDS011;11890;45.380;11.028;2023-02-22T05:01:59;127.78;;;59.25;;
23434;SDS011;11890;45.380;11.028;2023-02-22T05:04:27;133.10;;;59.42;;
23434;SDS011;11890;45.380;11.028;2023-02-22T05:06:58;128.88;;;58.33;;
23434;SDS011;11890;45.380;11.028;2023-02-22T05:09:26;137.00;;;61.45;;
23434;SDS011;11890;45.380;11.028;2023-02-22T05:11:54;134.05;;;57.33;;
23434;SDS011;11890;45.380;11.028;2023-02-22T05:14:22;128.15;;;59.15;;
23434;SDS011;11890;45.380;11.028;2023-02-22T05:16:55;135.80;;;60.22;;
23434;SDS011;11890;45.380;11.028;2023-02-22T05:19:23;133.60;;;60.85;;
23434;SDS011;11890;45.380;11.028;2023-02-22T05:21:51;141.80;;;61.83;;
23434;SDS011;11890;45.380;11.028;2023-02-22T05:24:19;136.50;;;60.92;;
23434;SDS011;11890;45.380;11.028;2023-02-22T05:26:47;126.32;;;59.90;;
23434;SDS011;11890;45.380;11.028;2023-02-22T05:29:17;130.00;;;59.47;;
23434;SDS011;11890;45.380;11.028;2023-02-22T05:31:46;132.35;;;61.30;;
23434;SDS011;11890;45.380;11.028;2023-02-22T05:34:14;138.73;;;61.17;;
23434;SDS011;11890;45.380;11.028;2023-02-22T05:36:42;141.77;;;62.50;;
23434;SDS011;11890;45.380;11.028;2023-02-22T05:39:10;131.45;;;59.30;;
23434;SDS011;11890;45.380;11.028;2023-02-22T05:41:38;133.75;;;60.28;;
23434;SDS011;11890;45.380;11.028;2023-02-22T05:44:06;132.77;;;59.25;;
23434;SDS011;11890;45.380;11.028;2023-02-22T05:46:34;133.52;;;61.00;;
23434;SDS011;11890;45.380;11.028;2023-02-22T05:49:02;130.85;;;60.35;;
23434;SDS011;11890;45.380;11.028;2023-02-22T05:51:29;129.93;;;60.17;;
23434;SDS011;11890;45.380;11.028;2023-02-22T05:53:57;140.30;;;59.58;;
23434;SDS011;11890;45.380;11.028;2023-02-22T05:56:26;130.48;;;60.65;;
23434;SDS011;11890;45.380;11.028;2023-02-22T05:58:55;138.18;;;60.20;;
23434;SDS011;11890;45.380;11.028;2023-02-22T06:01:23;133.10;;;60.13;;
23434;SDS011;11890;45.380;11.028;2023-02-22T06:03:51;134.35;;;61.75;;
23434;SDS011;11890;45.380;11.028;2023-02-22T06:06:19;132.70;;;59.58;;
23434;SDS011;11890;45.380;11.028;2023-02-22T06:08:48;124.68;;;58.30;;
23434;SDS011;11890;45.380;11.028;2023-02-22T06:11:16;135.80;;;59.63;;
23434;SDS011;11890;45.380;11.028;2023-02-22T06:13:50;135.98;;;60.45;;
23434;SDS011;11890;45.380;11.028;2023-02-22T06:16:19;145.38;;;63.28;;
23434;SDS011;11890;45.380;11.028;2023-02-22T06:18:48;135.70;;;62.33;;
23434;SDS011;11890;45.380;11.028;2023-02-22T06:21:16;136.60;;;62.00;;
23434;SDS011;11890;45.380;11.028;2023-02-22T06:23:46;139.18;;;61.30;;
23434;SDS011;11890;45.380;11.028;2023-02-22T06:26:17;131.45;;;62.95;;
23434;SDS011;11890;45.380;11.028;2023-02-22T06:28:51;140.60;;;64.57;;
23434;SDS011;11890;45.380;11.028;2023-02-22T06:32:20;128.20;;;58.67;;
23434;SDS011;11890;45.380;11.028;2023-02-22T06:34:49;137.70;;;59.13;;
23434;SDS011;11890;45.380;11.028;2023-02-22T06:37:18;134.52;;;62.05;;
23434;SDS011;11890;45.380;11.028;2023-02-22T06:39:46;170.05;;;76.10;;
23434;SDS011;11890;45.380;11.028;2023-02-22T06:42:14;134.73;;;63.38;;
23434;SDS011;11890;45.380;11.028;2023-02-22T06:44:42;135.02;;;62.03;;
23434;SDS011;11890;45.380;11.028;2023-02-22T06:47:13;132.52;;;62.17;;
23434;SDS011;11890;45.380;11.028;2023-02-22T06:49:41;136.48;;;61.13;;
23434;SDS011;11890;45.380;11.028;2023-02-22T06:52:10;123.55;;;58.47;;
23434;SDS011;11890;45.380;11.028;2023-02-22T06:54:40;128.07;;;59.10;;
23434;SDS011;11890;45.380;11.028;2023-02-22T06:57:11;141.77;;;62.33;;
23434;SDS011;11890;45.380;11.028;2023-02-22T06:59:39;135.02;;;60.47;;
23434;SDS011;11890;45.380;11.028;2023-02-22T07:02:08;134.05;;;62.72;;
23434;SDS011;11890;45.380;11.028;2023-02-22T07:04:37;129.10;;;58.90;;
23434;SDS011;11890;45.380;11.028;2023-02-22T07:07:09;135.80;;;63.58;;
23434;SDS011;11890;45.380;11.028;2023-02-22T07:09:36;139.82;;;61.90;;
23434;SDS011;11890;45.380;11.028;2023-02-22T07:12:05;138.60;;;63.88;;
23434;SDS011;11890;45.380;11.028;2023-02-22T07:14:34;130.63;;;59.92;;
23434;SDS011;11890;45.380;11.028;2023-02-22T07:17:02;150.50;;;66.28;;
23434;SDS011;11890;45.380;11.028;2023-02-22T07:19:30;134.60;;;62.88;;
23434;SDS011;11890;45.380;11.028;2023-02-22T07:21:57;144.52;;;62.60;;
23434;SDS011;11890;45.380;11.028;2023-02-22T07:24:25;137.27;;;63.10;;
23434;SDS011;11890;45.380;11.028;2023-02-22T07:26:57;148.60;;;66.88;;
23434;SDS011;11890;45.380;11.028;2023-02-22T07:29:27;140.30;;;63.33;;
23434;SDS011;11890;45.380;11.028;2023-02-22T07:31:55;157.80;;;67.43;;
23434;SDS011;11890;45.380;11.028;2023-02-22T07:34:23;141.13;;;64.15;;
23434;SDS011;11890;45.380;11.028;2023-02-22T07:36:51;146.38;;;66.97;;
23434;SDS011;11890;45.380;11.028;2023-02-22T07:39:19;154.25;;;67.63;;
23434;SDS011;11890;45.380;11.028;2023-02-22T07:41:47;147.20;;;68.43;;
23434;SDS011;11890;45.380;11.028;2023-02-22T07:44:22;142.98;;;65.90;;
23434;SDS011;11890;45.380;11.028;2023-02-22T07:46:52;145.32;;;67.47;;
23434;SDS011;11890;45.380;11.028;2023-02-22T07:49:20;171.20;;;82.22;;
23434;SDS011;11890;45.380;11.028;2023-02-22T07:51:48;158.48;;;67.70;;
23434;SDS011;11890;45.380;11.028;2023-02-22T07:54:16;152.48;;;67.78;;
23434;SDS011;11890;45.380;11.028;2023-02-22T07:56:45;143.40;;;66.68;;
23434;SDS011;11890;45.380;11.028;2023-02-22T07:59:20;149.43;;;68.13;;
23434;SDS011;11890;45.380;11.028;2023-02-22T08:01:48;140.13;;;66.72;;
23434;SDS011;11890;45.380;11.028;2023-02-22T08:04:16;155.55;;;70.15;;
23434;SDS011;11890;45.380;11.028;2023-02-22T08:06:49;145.48;;;65.93;;
23434;SDS011;11890;45.380;11.028;2023-02-22T08:09:27;154.10;;;67.28;;
23434;SDS011;11890;45.380;11.028;2023-02-22T08:11:55;142.23;;;66.95;;
23434;SDS011;11890;45.380;11.028;2023-02-22T08:14:24;152.68;;;68.45;;
23434;SDS011;11890;45.380;11.028;2023-02-22T08:16:51;150.15;;;67.53;;
23434;SDS011;11890;45.380;11.028;2023-02-22T08:19:20;180.55;;;97.85;;
23434;SDS011;11890;45.380;11.028;2023-02-22T08:21:48;156.05;;;72.53;;
23434;SDS011;11890;45.380;11.028;2023-02-22T08:24:17;155.35;;;73.28;;
23434;SDS011;11890;45.380;11.028;2023-02-22T08:26:45;147.20;;;69.70;;
23434;SDS011;11890;45.380;11.028;2023-02-22T08:29:14;174.27;;;84.43;;
23434;SDS011;11890;45.380;11.028;2023-02-22T08:31:42;141.65;;;68.30;;
23434;SDS011;11890;45.380;11.028;2023-02-22T08:34:16;144.63;;;66.78;;
23434;SDS011;11890;45.380;11.028;2023-02-22T08:36:45;153.85;;;70.75;;
23434;SDS011;11890;45.380;11.028;2023-02-22T08:39:13;149.52;;;68.53;;
23434;SDS011;11890;45.380;11.028;2023-02-22T08:41:42;166.88;;;76.30;;
23434;SDS011;11890;45.380;11.028;2023-02-22T08:44:10;151.48;;;70.53;;
23434;SDS011;11890;45.380;11.028;2023-02-22T09:23:24;145.48;;;68.35;;
23434;SDS011;11890;45.380;11.028;2023-02-22T09:25:53;157.15;;;72.05;;
23434;SDS011;11890;45.380;11.028;2023-02-22T09:28:21;188.45;;;90.38;;
23434;SDS011;11890;45.380;11.028;2023-02-22T09:30:48;324.92;;;166.70;;
23434;SDS011;11890;45.380;11.028;2023-02-22T09:33:17;226.80;;;107.65;;
23434;SDS011;11890;45.380;11.028;2023-02-22T09:35:47;146.55;;;67.82;;
23434;SDS011;11890;45.380;11.028;2023-02-22T09:38:17;142.70;;;65.75;;
23434;SDS011;11890;45.380;11.028;2023-02-22T09:40:46;138.43;;;65.30;;
23434;SDS011;11890;45.380;11.028;2023-02-22T09:48:43;140.43;;;65.35;;
23434;SDS011;11890;45.380;11.028;2023-02-22T09:51:14;133.50;;;62.67;;
23434;SDS011;11890;45.380;11.028;2023-02-22T09:53:44;135.93;;;61.70;;
23434;SDS011;11890;45.380;11.028;2023-02-22T09:56:15;138.10;;;63.50;;
23434;SDS011;11890;45.380;11.028;2023-02-22T09:58:46;154.43;;;74.00;;
23434;SDS011;11890;45.380;11.028;2023-02-22T10:03:57;139.02;;;65.45;;
23434;SDS011;11890;45.380;11.028;2023-02-22T10:06:27;142.80;;;66.78;;
23434;SDS011;11890;45.380;11.028;2023-02-22T10:08:59;122.40;;;58.45;;
23434;SDS011;11890;45.380;11.028;2023-02-22T10:11:35;128.75;;;58.13;;
23434;SDS011;11890;45.380;11.028;2023-02-22T10:16:58;126.80;;;56.80;;
23434;SDS011;11890;45.380;11.028;2023-02-22T10:22:18;114.85;;;53.50;;
23434;SDS011;11890;45.380;11.028;2023-02-22T10:24:53;115.25;;;54.65;;
23434;SDS011;11890;45.380;11.028;2023-02-22T10:27:35;115.53;;;54.13;;
23434;SDS011;11890;45.380;11.028;2023-02-22T10:30:06;119.75;;;54.25;;
23434;SDS011;11890;45.380;11.028;2023-02-22T10:35:43;122.47;;;54.28;;
23434;SDS011;11890;45.380;11.028;2023-02-22T10:38:16;110.60;;;52.30;;
23434;SDS011;11890;45.380;11.028;2023-02-22T10:40:47;114.85;;;51.90;;
23434;SDS011;11890;45.380;11.028;2023-02-22T10:43:16;123.15;;;53.05;;
23434;SDS011;11890;45.380;11.028;2023-02-22T10:45:44;111.95;;;52.20;;
23434;SDS011;11890;45.380;11.028;2023-02-22T10:48:14;119.68;;;53.38;;
23434;SDS011;11890;45.380;11.028;2023-02-22T10:50:45;110.53;;;49.53;;
23434;SDS011;11890;45.380;11.028;2023-02-22T10:53:18;105.68;;;50.53;;
23434;SDS011;11890;45.380;11.028;2023-02-22T11:01:24;102.45;;;48.83;;
23434;SDS011;11890;45.380;11.028;2023-02-22T11:06:27;97.78;;;44.95;;
23434;SDS011;11890;45.380;11.028;2023-02-22T11:11:36;103.32;;;48.75;;
23434;SDS011;11890;45.380;11.028;2023-02-22T11:14:05;98.85;;;47.75;;
23434;SDS011;11890;45.380;11.028;2023-02-22T11:19:10;102.82;;;49.72;;
23434;SDS011;11890;45.380;11.028;2023-02-22T11:21:39;104.57;;;48.83;;
23434;SDS011;11890;45.380;11.028;2023-02-22T11:24:08;99.93;;;48.10;;
23434;SDS011;11890;45.380;11.028;2023-02-22T11:26:45;101.68;;;50.17;;
23434;SDS011;11890;45.380;11.028;2023-02-22T11:29:19;97.38;;;45.85;;
23434;SDS011;11890;45.380;11.028;2023-02-22T11:31:48;101.10;;;44.67;;
23434;SDS011;11890;45.380;11.028;2023-02-22T11:34:30;101.13;;;49.70;;
23434;SDS011;11890;45.380;11.028;2023-02-22T11:37:14;98.22;;;47.20;;
23434;SDS011;11890;45.380;11.028;2023-02-22T11:39:42;103.22;;;50.72;;
23434;SDS011;11890;45.380;11.028;2023-02-22T11:42:31;103.47;;;49.20;;
23434;SDS011;11890;45.380;11.028;2023-02-22T11:45:14;127.50;;;63.13;;
23434;SDS011;11890;45.380;11.028;2023-02-22T11:55:45;110.00;;;51.83;;
23434;SDS011;11890;45.380;11.028;2023-02-22T12:11:22;106.80;;;52.45;;
23434;SDS011;11890;45.380;11.028;2023-02-22T12:19:04;106.28;;;52.72;;
23434;SDS011;11890;45.380;11.028;2023-02-22T12:21:35;140.65;;;69.18;;
23434;SDS011;11890;45.380;11.028;2023-02-22T12:24:11;111.60;;;52.75;;
23434;SDS011;11890;45.380;11.028;2023-02-22T12:27:06;109.93;;;51.90;;
23434;SDS011;11890;45.380;11.028;2023-02-22T12:29:33;107.63;;;52.75;;
23434;SDS011;11890;45.380;11.028;2023-02-22T12:34:37;103.80;;;48.30;;
23434;SDS011;11890;45.380;11.028;2023-02-22T12:37:18;107.40;;;49.80;;
23434;SDS011;11890;45.380;11.028;2023-02-22T12:39:55;105.38;;;48.50;;
23434;SDS011;11890;45.380;11.028;2023-02-22T12:45:05;112.88;;;52.65;;
23434;SDS011;11890;45.380;11.028;2023-02-22T12:47:39;104.55;;;49.47;;
23434;SDS011;11890;45.380;11.028;2023-02-22T12:50:25;107.32;;;50.33;;
23434;SDS011;11890;45.380;11.028;2023-02-22T12:55:43;102.80;;;47.13;;
23434;SDS011;11890;45.380;11.028;2023-02-22T12:58:18;101.03;;;47.50;;
23434;SDS011;11890;45.380;11.028;2023-02-22T13:01:33;111.07;;;50.05;;
23434;SDS011;11890;45.380;11.028;2023-02-22T13:03:41;110.20;;;50.63;;
23434;SDS011;11890;45.380;11.028;2023-02-22T13:13:55;109.45;;;48.92;;
23434;SDS011;11890;45.380;11.028;2023-02-22T13:21:54;107.35;;;48.92;;
23434;SDS011;11890;45.380;11.028;2023-02-22T13:24:51;107.90;;;48.53;;
23434;SDS011;11890;45.380;11.028;2023-02-22T13:29:43;105.50;;;47.58;;
23434;SDS011;11890;45.380;11.028;2023-02-22T13:32:19;106.15;;;48.05;;
23434;SDS011;11890;45.380;11.028;2023-02-22T13:45:27;113.20;;;50.50;;
23434;SDS011;11890;45.380;11.028;2023-02-22T13:47:59;109.55;;;48.67;;
23434;SDS011;11890;45.380;11.028;2023-02-22T13:50:47;111.88;;;49.50;;
23434;SDS011;11890;45.380;11.028;2023-02-22T13:53:20;103.10;;;47.33;;
23434;SDS011;11890;45.380;11.028;2023-02-22T13:55:53;106.18;;;49.28;;
23434;SDS011;11890;45.380;11.028;2023-02-22T13:58:25;114.20;;;48.67;;
23434;SDS011;11890;45.380;11.028;2023-02-22T14:00:57;103.80;;;48.25;;
23434;SDS011;11890;45.380;11.028;2023-02-22T14:03:30;114.15;;;48.67;;
23434;SDS011;11890;45.380;11.028;2023-02-22T14:06:03;98.93;;;48.13;;
23434;SDS011;11890;45.380;11.028;2023-02-22T14:11:00;109.22;;;50.17;;
23434;SDS011;11890;45.380;11.028;2023-02-22T14:13:29;105.78;;;48.88;;
23434;SDS011;11890;45.380;11.028;2023-02-22T14:21:07;102.97;;;49.00;;
23434;SDS011;11890;45.380;11.028;2023-02-22T14:23:39;106.53;;;48.20;;
23434;SDS011;11890;45.380;11.028;2023-02-22T14:26:23;105.50;;;47.90;;
23434;SDS011;11890;45.380;11.028;2023-02-22T14:31:27;110.68;;;48.35;;
23434;SDS011;11890;45.380;11.028;2023-02-22T14:34:10;102.28;;;48.42;;
23434;SDS011;11890;45.380;11.028;2023-02-22T14:47:17;115.18;;;53.80;;
23434;SDS011;11890;45.380;11.028;2023-02-22T14:49:49;108.70;;;46.88;;
23434;SDS011;11890;45.380;11.028;2023-02-22T14:52:40;107.25;;;47.92;;
23434;SDS011;11890;45.380;11.028;2023-02-22T14:55:15;98.93;;;47.38;;
23434;SDS011;11890;45.380;11.028;2023-02-22T15:00:19;102.13;;;47.88;;
23434;SDS011;11890;45.380;11.028;2023-02-22T15:02:49;107.60;;;48.67;;
23434;SDS011;11890;45.380;11.028;2023-02-22T15:05:24;92.47;;;43.47;;
23434;SDS011;11890;45.380;11.028;2023-02-22T15:07:57;105.10;;;45.60;;
23434;SDS011;11890;45.380;11.028;2023-02-22T15:10:27;103.72;;;47.47;;
23434;SDS011;11890;45.380;11.028;2023-02-22T15:12:57;103.80;;;48.90;;
23434;SDS011;11890;45.380;11.028;2023-02-22T15:15:36;98.32;;;46.28;;
23434;SDS011;11890;45.380;11.028;2023-02-22T15:18:05;99.78;;;45.85;;
23434;SDS011;11890;45.380;11.028;2023-02-22T15:20:37;101.45;;;47.13;;
23434;SDS011;11890;45.380;11.028;2023-02-22T15:23:05;102.90;;;47.30;;
23434;SDS011;11890;45.380;11.028;2023-02-22T15:25:33;104.93;;;49.30;;
23434;SDS011;11890;45.380;11.028;2023-02-22T15:28:03;108.75;;;47.38;;
23434;SDS011;11890;45.380;11.028;2023-02-22T15:30:35;108.88;;;49.05;;
23434;SDS011;11890;45.380;11.028;2023-02-22T15:33:14;111.72;;;47.28;;
23434;SDS011;11890;45.380;11.028;2023-02-22T15:35:42;107.60;;;46.40;;
23434;SDS011;11890;45.380;11.028;2023-02-22T15:40:39;107.90;;;49.75;;
23434;SDS011;11890;45.380;11.028;2023-02-22T15:43:18;109.45;;;49.05;;
23434;SDS011;11890;45.380;11.028;2023-02-22T15:45:50;110.40;;;48.65;;
23434;SDS011;11890;45.380;11.028;2023-02-22T15:48:21;103.20;;;46.97;;
23434;SDS011;11890;45.380;11.028;2023-02-22T15:50:57;104.40;;;47.08;;
23434;SDS011;11890;45.380;11.028;2023-02-22T15:53:28;98.55;;;46.15;;
23434;SDS011;11890;45.380;11.028;2023-02-22T15:55:57;108.80;;;47.60;;
23434;SDS011;11890;45.380;11.028;2023-02-22T15:58:27;96.82;;;45.85;;
23434;SDS011;11890;45.380;11.028;2023-02-22T16:01:09;98.20;;;46.15;;
23434;SDS011;11890;45.380;11.028;2023-02-22T16:09:09;104.05;;;47.08;;
23434;SDS011;11890;45.380;11.028;2023-02-22T16:11:40;116.20;;;53.22;;
23434;SDS011;11890;45.380;11.028;2023-02-22T16:19:58;105.70;;;47.72;;
23434;SDS011;11890;45.380;11.028;2023-02-22T16:22:33;108.55;;;50.60;;
23434;SDS011;11890;45.380;11.028;2023-02-22T16:27:55;109.80;;;50.58;;
23434;SDS011;11890;45.380;11.028;2023-02-22T16:30:25;110.47;;;47.72;;
23434;SDS011;11890;45.380;11.028;2023-02-22T16:32:54;107.90;;;51.80;;
23434;SDS011;11890;45.380;11.028;2023-02-22T16:35:26;113.60;;;51.92;;
23434;SDS011;11890;45.380;11.028;2023-02-22T16:37:59;120.00;;;52.42;;
23434;SDS011;11890;45.380;11.028;2023-02-22T16:43:01;139.85;;;62.97;;
23434;SDS011;11890;45.380;11.028;2023-02-22T16:45:29;119.30;;;53.88;;
23434;SDS011;11890;45.380;11.028;2023-02-22T16:47:58;113.57;;;51.25;;
23434;SDS011;11890;45.380;11.028;2023-02-22T16:50:26;116.78;;;52.22;;
23434;SDS011;11890;45.380;11.028;2023-02-22T16:52:53;113.63;;;51.55;;
23434;SDS011;11890;45.380;11.028;2023-02-22T16:55:24;117.10;;;54.35;;
23434;SDS011;11890;45.380;11.028;2023-02-22T16:57:54;126.97;;;56.80;;
23434;SDS011;11890;45.380;11.028;2023-02-22T17:00:22;117.38;;;52.38;;
23434;SDS011;11890;45.380;11.028;2023-02-22T17:02:57;116.20;;;51.20;;
23434;SDS011;11890;45.380;11.028;2023-02-22T17:05:29;124.25;;;53.28;;
23434;SDS011;11890;45.380;11.028;2023-02-22T17:07:59;127.05;;;54.58;;
23434;SDS011;11890;45.380;11.028;2023-02-22T17:10:27;122.05;;;52.75;;
23434;SDS011;11890;45.380;11.028;2023-02-22T17:12:55;128.63;;;52.85;;
23434;SDS011;11890;45.380;11.028;2023-02-22T17:15:25;110.80;;;49.53;;
23434;SDS011;11890;45.380;11.028;2023-02-22T17:17:54;116.40;;;52.28;;
23434;SDS011;11890;45.380;11.028;2023-02-22T17:20:22;123.30;;;52.60;;
23434;SDS011;11890;45.380;11.028;2023-02-22T17:23:00;122.15;;;52.60;;
23434;SDS011;11890;45.380;11.028;2023-02-22T17:25:33;124.75;;;51.47;;
23434;SDS011;11890;45.380;11.028;2023-02-22T17:28:03;122.45;;;52.42;;
23434;SDS011;11890;45.380;11.028;2023-02-22T17:30:31;120.18;;;50.95;;
23434;SDS011;11890;45.380;11.028;2023-02-22T17:32:59;127.82;;;54.22;;
23434;SDS011;11890;45.380;11.028;2023-02-22T17:35:31;127.93;;;54.72;;
23434;SDS011;11890;45.380;11.028;2023-02-22T17:38:03;121.32;;;54.30;;
23434;SDS011;11890;45.380;11.028;2023-02-22T17:40:35;122.72;;;56.30;;
23434;SDS011;11890;45.380;11.028;2023-02-22T17:43:04;127.03;;;56.30;;
23434;SDS011;11890;45.380;11.028;2023-02-22T17:45:38;177.65;;;76.57;;